Report METAR

 

KSJC - San Jose, California, USA
Distance from station: NE 14km
Dati ricevuti: 13/07/2020 22:53
Sereno
Sereno
 Vento da N
Vento: N 19 km/h
Temperatura: 26°C
P.to Rugiada: 14°C
Umidità: 48%
Barometro: 1011.2 hPa
Nuvole: Sereno
Visibility: 16 km
2020/07/13 20:53 KSJC 132053Z 35010KT 10SM CLR 26/14 A2986 RMK AO2 SLP110 T02560144 58005
KNUQ - Moffett Nas/Mtn, California, USA
Distance from station: N 14km
Dati ricevuti: 13/07/2020 15:55
DATI Obsoleti
Parz. nuvoloso
Parz. nuvoloso
 Vento da ENE
Vento: ENE 7 km/h
Temperatura: 16°C
P.to Rugiada: 14°C
Umidità: 88%
Barometro: 1011.9 hPa
Nuvole: Parz. nuvoloso
Visibility: 16 km
Cloud details: Parz. nuvoloso 366 m
2020/07/13 13:55 KNUQ 131355Z AUTO 07004KT 10SM SCT012 16/14 A2988 RMK AO2
 
KPAO - Palo Alto, California, USA
Distance from station: NNO 23km
Dati ricevuti: 13/07/2020 22:47
Sereno
Sereno
 Vento da NNO
Vento: NNO 31 km/h
Temperatura: 22°C
P.to Rugiada: 14°C
Umidità: 61%
Barometro: 1011.5 hPa
Nuvole: Sereno
Visibility: 16 km
2020/07/13 20:47 KPAO 132047Z 33017KT 10SM SKC 22/14 A2987
KRHV - San Jose/Reid, California, USA
Distance from station: ENE 19km
Dati ricevuti: 13/07/2020 22:47
Sereno
Sereno
 Vento da NO
Vento: NO 13 km/h
Temperatura: 28°C
Indice di Calore: 28°C
P.to Rugiada: 14°C
Umidità: 42%
Barometro: 672.2 hPa
Nuvole: Sereno
Visibility: 16 km
2020/07/13 20:47 KRHV 132047Z 32007KT 10SM SKC 28/14 A1985
 
KOAK - Oakland, California, USA
Distance from station: NNO 50km
Dati ricevuti: 13/07/2020 22:53
Few Clouds
Few Clouds
 Vento da NO
Vento: NO 17 km/h
Temperatura: 21°C
P.to Rugiada: 12°C
Umidità: 57%
Barometro: 1012.2 hPa
Nuvole: Few Clouds
Visibility: 16 km
Cloud details: Few Clouds 396 m
2020/07/13 20:53 KOAK 132053Z 32009KT 10SM FEW013 21/12 A2989 RMK AO2 SLP122 T02060122 58003
KSQL - San Carlos Airpo, California, USA
Distance from station: NO 34km
Dati ricevuti: 13/07/2020 20:57
DATI Obsoleti
Few Clouds
Few Clouds
 Vento da ONO
Vento: ONO 11 km/h
Temperatura: 22°C
P.to Rugiada: 13°C
Umidità: 57%
Barometro: 1012.2 hPa
Nuvole: Few Clouds
Visibility: 16 km
Cloud details: Few Clouds 305 m
2020/07/13 18:57 KSQL 131857Z 29006KT 10SM FEW010 22/13 A2989
 
KSFO - San Francisco, California, USA
Distance from station: NO 49km
Dati ricevuti: 13/07/2020 21:56
Few Clouds
Few Clouds
 Vento da NO
Vento: NO 31 km/h
Temperatura: 20°C
P.to Rugiada: 12°C
Umidità: 60%
Barometro: 1011.9 hPa
Nuvole: Few Clouds
Visibility: 14 km
Cloud details: Few Clouds 274 m
2020/07/13 19:56 KSFO 131956Z 32017KT 9SM FEW009 20/12 A2988 RMK AO2 SLP119 T02000117
KE16 - San Martin, California, USA
Distance from station: ESE 43km
Dati ricevuti: 13/07/2020 22:55
Sereno
Sereno
 Vento da SE
Vento: SE 26 km/h
Temperatura: 23°C
P.to Rugiada: 12°C
Umidità: 50%
Barometro: 1012.5 hPa
Nuvole: Sereno
Visibility: 16 km
2020/07/13 20:55 KE16 132055Z AUTO 13014KT 10SM CLR 23/12 A2990 RMK AO2 PWINO PNO
 
KWVI - Watsonville, California, USA
Distance from station: SSE 44km
Dati ricevuti: 13/07/2020 22:53
Coperto
Coperto
 Vento da OSO
Vento: OSO 13 km/h
Temperatura: 18°C
P.to Rugiada: 13°C
Umidità: 73%
Barometro: 1014.6 hPa
Nuvole: Coperto
Visibility: 16 km
Cloud details: Coperto 366 m
2020/07/13 20:53 KWVI 132053Z AUTO 24007KT 210V280 10SM OVC012 18/13 A2996 RMK AO2 SLP143 T01780128 50001
KHAF - Half Moon Bay, California, USA
Distance from station: ONO 50km
Dati ricevuti: 13/07/2020 22:55
Mist, Nuvoloso
Mist, Nuvoloso
 Vento da SSO
Vento: SSO 9 km/h
Temperatura: 14°C
P.to Rugiada: 12°C
Umidità: 88%
Barometro: 1014.2 hPa
Summary: Mist
Nuvole: Molto nuvoloso
Visibility: 5 km
Cloud details: Molto nuvoloso 183 m
2020/07/13 20:55 KHAF 132055Z AUTO 20005KT 3SM BR BKN006 14/12 A2995 RMK AO2
 
KHWD - Hayward, California, USA
Distance from station: N 44km
Dati ricevuti: 13/07/2020 22:54
Sereno
Sereno
 Vento da ONO
Vento: ONO 17 km/h
Temperatura: 22°C
P.to Rugiada: 12°C
Umidità: 53%
Barometro: 1011.9 hPa
Nuvole: Sereno
Visibility: 16 km
2020/07/13 20:54 KHWD 132054Z 30009KT 10SM CLR 22/12 A2988 RMK AO2 SLP126 T02170117 58005
KLVK - Livermore, California, USA
Distance from station: NNE 51km
Dati ricevuti: 13/07/2020 22:53
Sereno
Sereno
 Vento da NO
Vento: NO 22 km/h
Temperatura: 29°C
P.to Rugiada: 13°C
Umidità: 37%
Barometro: 1010.2 hPa
Nuvole: Sereno
Visibility: 16 km
2020/07/13 20:53 KLVK 132053Z 32012KT 10SM CLR 29/13 A2983 RMK AO2 SLP097 T02940128 58008